ARG1557 SACO-SAEZ
Flight info
| Callsign | ARG1557 |
|---|---|
| Flight time | 0h 53m |
| Altitude | 35000 |
| Route | UTRAX1C UTRAX UW24 SNT SNT7X |
| Aircraft | B738/M-SDE2E3FGHIRWXY/LB1 |
Departure
| Time | 2026-05-04 21:14 |
|---|---|
| Airport | Ingeniero Aeronáutico Ambrosio L.V. Taravella International Airport (SACO) |
Arrival
| Time | 2026-05-04 22:08 |
|---|---|
| Airport | Ezeiza International Airport - Ministro Pistarini (SAEZ) |
| Time | Latitude | Longitude | Altitude | Speed | Heading |
|---|---|---|---|---|---|
| 2026-05-04 19:56 | -31.31612 | -64.21166 | 1612 ft | 0 kts | 270° |
| 2026-05-04 21:03 | -31.31612 | -64.21151 | 1619 ft | 3 kts | 268° |
| 2026-05-04 21:03 | -31.31611 | -64.21128 | 1619 ft | 3 kts | 258° |
| 2026-05-04 21:03 | -31.31605 | -64.21108 | 1617 ft | 3 kts | 219° |
| 2026-05-04 21:04 | -31.31591 | -64.21102 | 1622 ft | 3 kts | 180° |
| 2026-05-04 21:04 | -31.31571 | -64.21102 | 1622 ft | 2 kts | 180° |
| 2026-05-04 21:04 | -31.31569 | -64.21102 | 1622 ft | 0 kts | 180° |
| 2026-05-04 21:09 | -31.31596 | -64.21101 | 1617 ft | 6 kts | 179° |
| 2026-05-04 21:10 | -31.31642 | -64.21100 | 1617 ft | 7 kts | 179° |
| 2026-05-04 21:10 | -31.31687 | -64.21099 | 1616 ft | 6 kts | 178° |
| 2026-05-04 21:10 | -31.31725 | -64.21087 | 1615 ft | 6 kts | 149° |
| 2026-05-04 21:10 | -31.31766 | -64.21051 | 1612 ft | 9 kts | 144° |
| 2026-05-04 21:11 | -31.31828 | -64.21028 | 1615 ft | 10 kts | 178° |
| 2026-05-04 21:11 | -31.31901 | -64.21028 | 1616 ft | 11 kts | 180° |
| 2026-05-04 21:11 | -31.31981 | -64.21027 | 1615 ft | 12 kts | 180° |
| 2026-05-04 21:11 | -31.32068 | -64.21026 | 1614 ft | 13 kts | 179° |
| 2026-05-04 21:12 | -31.32162 | -64.21023 | 1616 ft | 14 kts | 179° |
| 2026-05-04 21:12 | -31.32261 | -64.21021 | 1616 ft | 14 kts | 179° |
| 2026-05-04 21:12 | -31.32355 | -64.21019 | 1614 ft | 13 kts | 177° |
| 2026-05-04 21:12 | -31.32427 | -64.20967 | 1612 ft | 12 kts | 118° |
| 2026-05-04 21:13 | -31.32421 | -64.20878 | 1614 ft | 11 kts | 57° |
| 2026-05-04 21:13 | -31.32361 | -64.20823 | 1611 ft | 11 kts | 22° |
| 2026-05-04 21:13 | -31.32283 | -64.20815 | 1615 ft | 17 kts | 0° |
| 2026-05-04 21:13 | -31.31979 | -64.20818 | 1617 ft | 74 kts | 359° |
| 2026-05-04 21:14 | -31.31258 | -64.20830 | 1616 ft | 133 kts | 359° |
| 2026-05-04 21:14 | -31.30166 | -64.20845 | 1768 ft | 173 kts | 360° |
| 2026-05-04 21:14 | -31.28918 | -64.20919 | 2444 ft | 185 kts | 359° |
| 2026-05-04 21:14 | -31.27628 | -64.20955 | 3354 ft | 185 kts | 7° |
| 2026-05-04 21:15 | -31.26441 | -64.20408 | 3989 ft | 193 kts | 41° |
| 2026-05-04 21:15 | -31.25672 | -64.19046 | 4389 ft | 210 kts | 63° |
| 2026-05-04 21:15 | -31.25067 | -64.17498 | 5138 ft | 208 kts | 62° |
| 2026-05-04 21:15 | -31.24460 | -64.15979 | 5891 ft | 208 kts | 66° |
| 2026-05-04 21:16 | -31.24295 | -64.14257 | 6346 ft | 226 kts | 102° |
| 2026-05-04 21:16 | -31.25017 | -64.12602 | 6827 ft | 235 kts | 126° |
| 2026-05-04 21:16 | -31.26083 | -64.11107 | 7284 ft | 246 kts | 133° |
| 2026-05-04 21:16 | -31.27290 | -64.09617 | 7685 ft | 263 kts | 134° |
| 2026-05-04 21:17 | -31.28575 | -64.08003 | 8174 ft | 279 kts | 133° |
| 2026-05-04 21:17 | -31.29887 | -64.06258 | 8710 ft | 293 kts | 131° |
| 2026-05-04 21:17 | -31.31234 | -64.04400 | 9207 ft | 307 kts | 131° |
| 2026-05-04 21:17 | -31.32623 | -64.02472 | 9841 ft | 314 kts | 132° |
| 2026-05-04 21:18 | -31.34047 | -64.00515 | 10448 ft | 320 kts | 132° |
| 2026-05-04 21:18 | -31.35528 | -63.98502 | 10860 ft | 334 kts | 133° |
| 2026-05-04 21:18 | -31.37075 | -63.96406 | 11243 ft | 349 kts | 133° |
| 2026-05-04 21:18 | -31.38687 | -63.94211 | 11591 ft | 364 kts | 133° |
| 2026-05-04 21:19 | -31.40354 | -63.91931 | 12049 ft | 374 kts | 133° |
| 2026-05-04 21:19 | -31.42046 | -63.89609 | 12684 ft | 377 kts | 133° |
| 2026-05-04 21:19 | -31.43731 | -63.87298 | 13321 ft | 381 kts | 133° |
| 2026-05-04 21:19 | -31.45458 | -63.84933 | 13928 ft | 385 kts | 133° |
| 2026-05-04 21:20 | -31.47233 | -63.82581 | 14492 ft | 387 kts | 138° |
| 2026-05-04 21:20 | -31.49166 | -63.80382 | 15068 ft | 390 kts | 139° |
| 2026-05-04 21:20 | -31.51128 | -63.78179 | 15648 ft | 393 kts | 139° |
| 2026-05-04 21:20 | -31.53115 | -63.75964 | 16245 ft | 396 kts | 140° |
| 2026-05-04 21:21 | -31.55109 | -63.73743 | 16841 ft | 399 kts | 140° |
| 2026-05-04 21:21 | -31.57124 | -63.71490 | 17406 ft | 402 kts | 139° |
| 2026-05-04 21:21 | -31.59144 | -63.69223 | 17986 ft | 405 kts | 139° |
| 2026-05-04 21:21 | -31.61184 | -63.66928 | 18491 ft | 409 kts | 140° |
| 2026-05-04 21:22 | -31.63243 | -63.64614 | 18977 ft | 412 kts | 140° |
| 2026-05-04 21:22 | -31.65332 | -63.62286 | 19449 ft | 416 kts | 140° |
| 2026-05-04 21:22 | -31.67442 | -63.59962 | 19926 ft | 419 kts | 140° |
| 2026-05-04 21:22 | -31.69581 | -63.57613 | 20403 ft | 423 kts | 140° |
| 2026-05-04 21:23 | -31.71724 | -63.55248 | 20885 ft | 427 kts | 140° |
| 2026-05-04 21:23 | -31.73891 | -63.52844 | 21356 ft | 430 kts | 140° |
| 2026-05-04 21:23 | -31.76064 | -63.50426 | 21828 ft | 434 kts | 140° |
| 2026-05-04 21:23 | -31.78264 | -63.47979 | 22292 ft | 437 kts | 140° |
| 2026-05-04 21:24 | -31.80474 | -63.45525 | 22738 ft | 441 kts | 140° |
| 2026-05-04 21:24 | -31.82708 | -63.43045 | 23196 ft | 444 kts | 140° |
| 2026-05-04 21:24 | -31.84961 | -63.40539 | 23598 ft | 447 kts | 140° |
| 2026-05-04 21:24 | -31.87219 | -63.38025 | 23985 ft | 450 kts | 140° |
| 2026-05-04 21:25 | -31.89366 | -63.35326 | 24365 ft | 456 kts | 132° |
| 2026-05-04 21:25 | -31.91367 | -63.32419 | 24758 ft | 458 kts | 132° |
| 2026-05-04 21:25 | -31.93355 | -63.29483 | 25121 ft | 461 kts | 131° |
| 2026-05-04 21:25 | -31.95338 | -63.26515 | 25477 ft | 463 kts | 131° |
| 2026-05-04 21:26 | -31.97326 | -63.23535 | 25830 ft | 466 kts | 131° |
| 2026-05-04 21:26 | -31.99341 | -63.20534 | 26193 ft | 468 kts | 132° |
| 2026-05-04 21:26 | -32.01367 | -63.17531 | 26570 ft | 470 kts | 132° |
| 2026-05-04 21:26 | -32.03402 | -63.14514 | 26912 ft | 473 kts | 132° |
| 2026-05-04 21:27 | -32.05444 | -63.11475 | 27223 ft | 475 kts | 132° |
| 2026-05-04 21:27 | -32.07487 | -63.08424 | 27547 ft | 477 kts | 132° |
| 2026-05-04 21:27 | -32.09549 | -63.05341 | 27860 ft | 480 kts | 132° |
| 2026-05-04 21:27 | -32.11611 | -63.02259 | 28160 ft | 482 kts | 132° |
| 2026-05-04 21:28 | -32.13693 | -62.99148 | 28479 ft | 484 kts | 132° |
| 2026-05-04 21:28 | -32.15775 | -62.96036 | 28777 ft | 486 kts | 132° |
| 2026-05-04 21:28 | -32.17869 | -62.92902 | 29065 ft | 488 kts | 132° |
| 2026-05-04 21:28 | -32.19973 | -62.89749 | 29284 ft | 492 kts | 132° |
| 2026-05-04 21:29 | -32.24251 | -62.83329 | 29567 ft | 501 kts | 132° |
| 2026-05-04 21:29 | -32.26403 | -62.80095 | 29871 ft | 502 kts | 133° |
| 2026-05-04 21:29 | -32.28554 | -62.76858 | 30179 ft | 502 kts | 133° |
| 2026-05-04 21:30 | -32.30700 | -62.73630 | 30489 ft | 501 kts | 133° |
| 2026-05-04 21:30 | -32.32852 | -62.70389 | 30806 ft | 501 kts | 133° |
| 2026-05-04 21:30 | -32.34995 | -62.67158 | 31106 ft | 500 kts | 133° |
| 2026-05-04 21:30 | -32.37135 | -62.63928 | 31436 ft | 500 kts | 133° |
| 2026-05-04 21:31 | -32.41411 | -62.57469 | 32019 ft | 499 kts | 133° |
| 2026-05-04 21:31 | -32.43546 | -62.54241 | 32327 ft | 499 kts | 133° |
| 2026-05-04 21:31 | -32.45676 | -62.51014 | 32620 ft | 498 kts | 133° |
| 2026-05-04 21:32 | -32.47801 | -62.47792 | 32952 ft | 497 kts | 133° |
| 2026-05-04 21:32 | -32.49921 | -62.44575 | 33266 ft | 496 kts | 133° |
| 2026-05-04 21:32 | -32.52034 | -62.41369 | 33571 ft | 495 kts | 133° |
| 2026-05-04 21:32 | -32.54151 | -62.38154 | 33885 ft | 495 kts | 134° |
| 2026-05-04 21:33 | -32.56261 | -62.34947 | 34137 ft | 494 kts | 134° |
| 2026-05-04 21:33 | -32.58367 | -62.31741 | 34381 ft | 494 kts | 134° |
| 2026-05-04 21:33 | -32.60470 | -62.28537 | 34635 ft | 493 kts | 134° |
| 2026-05-04 21:33 | -32.62571 | -62.25334 | 34845 ft | 494 kts | 134° |
| 2026-05-04 21:34 | -32.64685 | -62.22113 | 34850 ft | 498 kts | 134° |
| 2026-05-04 21:34 | -32.68907 | -62.15653 | 34857 ft | 492 kts | 133° |
| 2026-05-04 21:35 | -32.72845 | -62.09044 | 34872 ft | 492 kts | 129° |
| 2026-05-04 21:35 | -32.76638 | -62.02290 | 34863 ft | 492 kts | 130° |
| 2026-05-04 21:36 | -32.80558 | -61.95664 | 34860 ft | 491 kts | 131° |
| 2026-05-04 21:36 | -32.84457 | -61.89017 | 34865 ft | 491 kts | 130° |
| 2026-05-04 21:37 | -32.88310 | -61.82327 | 34881 ft | 491 kts | 130° |
| 2026-05-04 21:37 | -32.92186 | -61.75662 | 34875 ft | 491 kts | 131° |
| 2026-05-04 21:38 | -32.96086 | -61.69010 | 34872 ft | 490 kts | 133° |
| 2026-05-04 21:38 | -33.00313 | -61.62725 | 34869 ft | 485 kts | 137° |
| 2026-05-04 21:39 | -33.04625 | -61.56539 | 34871 ft | 488 kts | 135° |
| 2026-05-04 21:39 | -33.08795 | -61.50149 | 34874 ft | 489 kts | 134° |
| 2026-05-04 21:40 | -33.12990 | -61.43795 | 34874 ft | 488 kts | 135° |
| 2026-05-04 21:40 | -33.17196 | -61.37458 | 34873 ft | 488 kts | 135° |
| 2026-05-04 21:41 | -33.21391 | -61.31125 | 34862 ft | 487 kts | 135° |
| 2026-05-04 21:41 | -33.25582 | -61.24792 | 34881 ft | 486 kts | 135° |
| 2026-05-04 21:42 | -33.29761 | -61.18465 | 34880 ft | 486 kts | 135° |
| 2026-05-04 21:42 | -33.33938 | -61.12130 | 34880 ft | 486 kts | 135° |
| 2026-05-04 21:43 | -33.38108 | -61.05795 | 34879 ft | 486 kts | 135° |
| 2026-05-04 21:43 | -33.42283 | -60.99440 | 34883 ft | 486 kts | 135° |
| 2026-05-04 21:44 | -33.46444 | -60.93094 | 34879 ft | 485 kts | 135° |
| 2026-05-04 21:44 | -33.50591 | -60.86762 | 34880 ft | 484 kts | 135° |
| 2026-05-04 21:45 | -33.54736 | -60.80423 | 34885 ft | 485 kts | 134° |
| 2026-05-04 21:45 | -33.58887 | -60.74062 | 34886 ft | 486 kts | 134° |
| 2026-05-04 21:46 | -33.63046 | -60.67677 | 34171 ft | 491 kts | 134° |
| 2026-05-04 21:46 | -33.65158 | -60.64436 | 33341 ft | 497 kts | 134° |
| 2026-05-04 21:46 | -33.67297 | -60.61148 | 32469 ft | 502 kts | 133° |
| 2026-05-04 21:46 | -33.69446 | -60.57837 | 31618 ft | 507 kts | 133° |
| 2026-05-04 21:47 | -33.71620 | -60.54480 | 30782 ft | 511 kts | 133° |
| 2026-05-04 21:47 | -33.73800 | -60.51113 | 29990 ft | 514 kts | 133° |
| 2026-05-04 21:47 | -33.76003 | -60.47711 | 29046 ft | 517 kts | 133° |
| 2026-05-04 21:47 | -33.78209 | -60.44301 | 28236 ft | 517 kts | 133° |
| 2026-05-04 21:48 | -33.80399 | -60.40908 | 27652 ft | 512 kts | 133° |
| 2026-05-04 21:48 | -33.82562 | -60.37554 | 27116 ft | 507 kts | 133° |
| 2026-05-04 21:48 | -33.84712 | -60.34219 | 26589 ft | 502 kts | 133° |
| 2026-05-04 21:48 | -33.86831 | -60.30932 | 26064 ft | 497 kts | 133° |
| 2026-05-04 21:49 | -33.88941 | -60.27658 | 25565 ft | 492 kts | 133° |
| 2026-05-04 21:49 | -33.91027 | -60.24418 | 25034 ft | 489 kts | 133° |
| 2026-05-04 21:49 | -33.93094 | -60.21202 | 24533 ft | 485 kts | 133° |
| 2026-05-04 21:49 | -33.95148 | -60.18004 | 24023 ft | 482 kts | 133° |
| 2026-05-04 21:50 | -33.97188 | -60.14824 | 23522 ft | 479 kts | 133° |
| 2026-05-04 21:50 | -33.99214 | -60.11664 | 22967 ft | 476 kts | 133° |
| 2026-05-04 21:50 | -34.01223 | -60.08526 | 22456 ft | 471 kts | 133° |
| 2026-05-04 21:50 | -34.03209 | -60.05422 | 21960 ft | 466 kts | 133° |
| 2026-05-04 21:51 | -34.05175 | -60.02347 | 21500 ft | 462 kts | 133° |
| 2026-05-04 21:51 | -34.07124 | -59.99297 | 21009 ft | 458 kts | 133° |
| 2026-05-04 21:51 | -34.09056 | -59.96272 | 20523 ft | 454 kts | 133° |
| 2026-05-04 21:51 | -34.10971 | -59.93270 | 20051 ft | 450 kts | 133° |
| 2026-05-04 21:52 | -34.12869 | -59.90291 | 19578 ft | 447 kts | 133° |
| 2026-05-04 21:52 | -34.14752 | -59.87334 | 19116 ft | 443 kts | 133° |
| 2026-05-04 21:52 | -34.16619 | -59.84400 | 18646 ft | 440 kts | 133° |
| 2026-05-04 21:52 | -34.18471 | -59.81487 | 18187 ft | 437 kts | 133° |
| 2026-05-04 21:53 | -34.20304 | -59.78600 | 17814 ft | 430 kts | 133° |
| 2026-05-04 21:53 | -34.22101 | -59.75765 | 17438 ft | 424 kts | 133° |
| 2026-05-04 21:53 | -34.23890 | -59.72946 | 16834 ft | 423 kts | 133° |
| 2026-05-04 21:53 | -34.25675 | -59.70135 | 16325 ft | 421 kts | 133° |
| 2026-05-04 21:54 | -34.27444 | -59.67342 | 15859 ft | 417 kts | 133° |
| 2026-05-04 21:54 | -34.29194 | -59.64573 | 15391 ft | 414 kts | 132° |
| 2026-05-04 21:54 | -34.30930 | -59.61826 | 14935 ft | 410 kts | 132° |
| 2026-05-04 21:54 | -34.32650 | -59.59103 | 14455 ft | 407 kts | 132° |
| 2026-05-04 21:55 | -34.34355 | -59.56403 | 14012 ft | 403 kts | 132° |
| 2026-05-04 21:55 | -34.36044 | -59.53726 | 13543 ft | 399 kts | 132° |
| 2026-05-04 21:55 | -34.37718 | -59.51071 | 13042 ft | 396 kts | 132° |
| 2026-05-04 21:55 | -34.39377 | -59.48438 | 12526 ft | 392 kts | 132° |
| 2026-05-04 21:56 | -34.41021 | -59.45826 | 12031 ft | 389 kts | 131° |
| 2026-05-04 21:56 | -34.42650 | -59.43236 | 11521 ft | 386 kts | 131° |
| 2026-05-04 21:56 | -34.44264 | -59.40668 | 11021 ft | 382 kts | 131° |
| 2026-05-04 21:56 | -34.45863 | -59.38122 | 10518 ft | 379 kts | 131° |
| 2026-05-04 21:57 | -34.47448 | -59.35596 | 10028 ft | 376 kts | 130° |
| 2026-05-04 21:57 | -34.49019 | -59.33093 | 9512 ft | 372 kts | 130° |
| 2026-05-04 21:57 | -34.50575 | -59.30610 | 8944 ft | 369 kts | 129° |
| 2026-05-04 21:57 | -34.52125 | -59.28138 | 8329 ft | 369 kts | 129° |
| 2026-05-04 21:58 | -34.53650 | -59.25699 | 8062 ft | 358 kts | 129° |
| 2026-05-04 21:58 | -34.55125 | -59.23339 | 7823 ft | 346 kts | 128° |
| 2026-05-04 21:58 | -34.56552 | -59.21053 | 7579 ft | 335 kts | 128° |
| 2026-05-04 21:58 | -34.57937 | -59.18837 | 7335 ft | 326 kts | 128° |
| 2026-05-04 21:59 | -34.59284 | -59.16681 | 7094 ft | 317 kts | 128° |
| 2026-05-04 21:59 | -34.60599 | -59.14574 | 6857 ft | 310 kts | 128° |
| 2026-05-04 21:59 | -34.61885 | -59.12512 | 6621 ft | 304 kts | 128° |
| 2026-05-04 21:59 | -34.63146 | -59.10490 | 6384 ft | 298 kts | 128° |
| 2026-05-04 22:00 | -34.64383 | -59.08503 | 6140 ft | 293 kts | 128° |
| 2026-05-04 22:00 | -34.65600 | -59.06547 | 5885 ft | 289 kts | 128° |
| 2026-05-04 22:00 | -34.66799 | -59.04620 | 5631 ft | 285 kts | 128° |
| 2026-05-04 22:00 | -34.67982 | -59.02719 | 5387 ft | 281 kts | 128° |
| 2026-05-04 22:01 | -34.69153 | -59.00833 | 5149 ft | 280 kts | 127° |
| 2026-05-04 22:01 | -34.70320 | -58.98956 | 4951 ft | 278 kts | 127° |
| 2026-05-04 22:01 | -34.71474 | -58.97095 | 4935 ft | 276 kts | 127° |
| 2026-05-04 22:01 | -34.72633 | -58.95227 | 4929 ft | 279 kts | 127° |
| 2026-05-04 22:02 | -34.73804 | -58.93339 | 4827 ft | 284 kts | 127° |
| 2026-05-04 22:02 | -34.74940 | -58.91360 | 4556 ft | 286 kts | 119° |
| 2026-05-04 22:02 | -34.75717 | -58.89161 | 4286 ft | 282 kts | 106° |
| 2026-05-04 22:02 | -34.76222 | -58.86877 | 4015 ft | 279 kts | 102° |
| 2026-05-04 22:03 | -34.76647 | -58.84596 | 3745 ft | 276 kts | 101° |
| 2026-05-04 22:03 | -34.77049 | -58.82332 | 3479 ft | 273 kts | 101° |
| 2026-05-04 22:03 | -34.77450 | -58.80088 | 3203 ft | 271 kts | 101° |
| 2026-05-04 22:03 | -34.77850 | -58.77864 | 2928 ft | 269 kts | 101° |
| 2026-05-04 22:04 | -34.78240 | -58.75710 | 2929 ft | 254 kts | 101° |
| 2026-05-04 22:04 | -34.78613 | -58.73652 | 2761 ft | 245 kts | 101° |
| 2026-05-04 22:04 | -34.78973 | -58.71671 | 2504 ft | 235 kts | 101° |
| 2026-05-04 22:04 | -34.79305 | -58.69843 | 2267 ft | 210 kts | 101° |
| 2026-05-04 22:05 | -34.79599 | -58.68226 | 2143 ft | 187 kts | 101° |
| 2026-05-04 22:05 | -34.79870 | -58.66707 | 1933 ft | 181 kts | 101° |
| 2026-05-04 22:05 | -34.80131 | -58.65253 | 1707 ft | 172 kts | 100° |
| 2026-05-04 22:05 | -34.80381 | -58.63867 | 1478 ft | 164 kts | 100° |
| 2026-05-04 22:06 | -34.80617 | -58.62547 | 1265 ft | 154 kts | 100° |
| 2026-05-04 22:06 | -34.80838 | -58.61316 | 1064 ft | 146 kts | 99° |
| 2026-05-04 22:06 | -34.81052 | -58.60117 | 891 ft | 148 kts | 100° |
| 2026-05-04 22:06 | -34.81273 | -58.58878 | 683 ft | 151 kts | 100° |
| 2026-05-04 22:07 | -34.81495 | -58.57646 | 509 ft | 148 kts | 100° |
| 2026-05-04 22:07 | -34.81712 | -58.56426 | 325 ft | 147 kts | 100° |
| 2026-05-04 22:07 | -34.81929 | -58.55212 | 137 ft | 147 kts | 101° |
| 2026-05-04 22:07 | -34.82138 | -58.54042 | 81 ft | 128 kts | 102° |
| 2026-05-04 22:08 | -34.82241 | -58.53442 | 83 ft | 45 kts | 102° |
| 2026-05-04 22:08 | -34.82303 | -58.53112 | 82 ft | 33 kts | 103° |
| 2026-05-04 22:08 | -34.82334 | -58.52939 | 82 ft | 13 kts | 93° |
| 2026-05-04 22:08 | -34.82276 | -58.52897 | 84 ft | 11 kts | 349° |
| 2026-05-04 22:09 | -34.82204 | -58.52921 | 82 ft | 11 kts | 343° |
| 2026-05-04 22:09 | -34.82133 | -58.52946 | 83 ft | 11 kts | 344° |
| 2026-05-04 22:09 | -34.82061 | -58.52976 | 81 ft | 11 kts | 331° |
| 2026-05-04 22:09 | -34.82020 | -58.53052 | 71 ft | 11 kts | 284° |
| 2026-05-04 22:10 | -34.82002 | -58.53151 | 73 ft | 13 kts | 282° |
| 2026-05-04 22:10 | -34.81981 | -58.53255 | 71 ft | 13 kts | 284° |
| 2026-05-04 22:10 | -34.81960 | -58.53356 | 75 ft | 12 kts | 283° |
| 2026-05-04 22:10 | -34.81941 | -58.53454 | 71 ft | 12 kts | 284° |
| 2026-05-04 22:11 | -34.81923 | -58.53545 | 69 ft | 11 kts | 283° |
| 2026-05-04 22:11 | -34.81893 | -58.53625 | 69 ft | 10 kts | 310° |
| 2026-05-04 22:11 | -34.81837 | -58.53668 | 72 ft | 9 kts | 334° |
| 2026-05-04 22:11 | -34.81781 | -58.53700 | 72 ft | 9 kts | 335° |
| 2026-05-04 22:12 | -34.81731 | -58.53735 | 74 ft | 8 kts | 317° |
| 2026-05-04 22:12 | -34.81705 | -58.53789 | 67 ft | 7 kts | 286° |
| 2026-05-04 22:12 | -34.81706 | -58.53846 | 71 ft | 7 kts | 255° |
| 2026-05-04 22:12 | -34.81727 | -58.53899 | 72 ft | 7 kts | 241° |
| 2026-05-04 22:13 | -34.81750 | -58.53948 | 70 ft | 7 kts | 240° |
| 2026-05-04 22:13 | -34.81772 | -58.53999 | 71 ft | 7 kts | 243° |
| 2026-05-04 22:13 | -34.81789 | -58.54051 | 66 ft | 7 kts | 255° |
| 2026-05-04 22:13 | -34.81783 | -58.54097 | 73 ft | 5 kts | 321° |
| 2026-05-04 22:14 | -34.81755 | -58.54097 | 72 ft | 4 kts | 8° |
| 2026-05-04 22:14 | -34.81721 | -58.54090 | 74 ft | 5 kts | 8° |
| 2026-05-04 22:14 | -34.81687 | -58.54084 | 70 ft | 3 kts | 8° |
| 2026-05-04 22:14 | -34.81678 | -58.54083 | 72 ft | 0 kts | 8° |